createdAt,value
2018-07-15T00:04:55.870Z,16.00
2018-07-15T00:15:02.055Z,15.90
2018-07-15T00:20:05.268Z,15.80
2018-07-15T00:25:08.408Z,15.60
2018-07-15T00:30:11.549Z,15.50
2018-07-15T00:35:14.716Z,15.50
2018-07-15T00:40:17.815Z,15.40
2018-07-15T00:45:27.572Z,15.30
2018-07-15T00:50:30.782Z,15.20
2018-07-15T00:55:34.000Z,15.10
2018-07-15T01:00:42.632Z,15.00
2018-07-15T01:05:45.839Z,14.90
2018-07-15T01:10:52.381Z,14.80
2018-07-15T01:15:55.444Z,14.80
2018-07-15T01:20:58.549Z,14.70
2018-07-15T01:26:02.724Z,14.70
2018-07-15T01:31:06.111Z,14.60
2018-07-15T01:36:09.246Z,14.50
2018-07-15T01:41:12.389Z,14.50
2018-07-15T01:51:18.503Z,14.40
2018-07-15T01:56:21.701Z,14.30
2018-07-15T02:01:24.977Z,14.30
2018-07-15T02:06:28.100Z,14.20
2018-07-15T02:11:31.189Z,14.20
2018-07-15T02:16:34.271Z,14.10
2018-07-15T02:21:37.365Z,14.10
2018-07-15T02:26:40.506Z,14.00
2018-07-15T02:36:47.706Z,14.00
2018-07-15T02:41:50.752Z,13.90
2018-07-15T02:46:53.918Z,13.90
2018-07-15T02:51:56.964Z,13.80
2018-07-15T02:57:00.080Z,13.80
2018-07-15T03:02:03.463Z,13.80
2018-07-15T03:07:06.689Z,13.70
2018-07-15T03:12:09.822Z,13.70
2018-07-15T03:17:12.956Z,13.70
2018-07-15T03:22:16.052Z,13.80
2018-07-15T03:27:19.189Z,13.90
2018-07-15T03:32:22.286Z,14.10
2018-07-15T03:37:25.399Z,14.20
2018-07-15T03:42:28.728Z,14.40
2018-07-15T03:47:31.811Z,14.60
2018-07-15T03:52:34.860Z,14.70
2018-07-15T03:57:38.058Z,14.80
2018-07-15T04:02:41.125Z,14.80
2018-07-15T04:07:44.193Z,14.90
2018-07-15T04:17:55.451Z,15.00
2018-07-15T04:22:58.773Z,15.10
2018-07-15T04:28:02.337Z,15.40
2018-07-15T04:33:05.513Z,15.60
2018-07-15T04:38:08.621Z,15.90
2018-07-15T04:43:11.889Z,16.20
2018-07-15T04:48:15.036Z,16.40
2018-07-15T04:53:18.152Z,16.60
2018-07-15T05:03:24.115Z,17.20
2018-07-15T05:08:27.196Z,17.50
2018-07-15T05:13:30.253Z,17.70
2018-07-15T05:18:33.446Z,17.80
2018-07-15T05:23:37.048Z,17.90
2018-07-15T05:28:40.184Z,17.90
2018-07-15T05:33:43.260Z,17.90
2018-07-15T05:38:46.384Z,18.00
2018-07-15T05:43:49.656Z,18.00
2018-07-15T05:48:52.865Z,18.10
2018-07-15T05:53:55.972Z,18.20
2018-07-15T05:58:59.108Z,18.50
2018-07-15T06:04:02.237Z,18.80
2018-07-15T06:09:06.136Z,19.40
2018-07-15T06:14:09.203Z,20.40
2018-07-15T06:19:12.354Z,21.50
2018-07-15T06:24:15.513Z,22.10
2018-07-15T06:29:19.635Z,22.10
2018-07-15T06:34:23.027Z,22.70
2018-07-15T06:39:26.436Z,23.70
2018-07-15T06:44:29.565Z,24.10
2018-07-15T06:49:32.629Z,24.40
2018-07-15T06:54:35.778Z,25.10
2018-07-15T06:59:39.909Z,25.50
2018-07-15T07:04:42.974Z,25.50
2018-07-15T07:09:46.220Z,25.00
2018-07-15T07:14:49.324Z,24.50
2018-07-15T07:19:52.436Z,24.40
2018-07-15T07:24:55.553Z,24.70
2018-07-15T07:29:58.634Z,25.20
2018-07-15T07:35:01.815Z,26.30
2018-07-15T07:40:05.177Z,26.20
2018-07-15T07:45:08.256Z,26.30
2018-07-15T07:50:11.375Z,26.40
2018-07-15T07:55:15.517Z,26.60
2018-07-15T08:00:18.593Z,27.10
2018-07-15T08:05:21.714Z,26.80
2018-07-15T08:10:25.810Z,26.70
2018-07-15T08:15:28.908Z,26.00
2018-07-15T08:20:32.045Z,26.20
2018-07-15T08:25:35.177Z,25.70
2018-07-15T08:30:49.584Z,26.60
2018-07-15T08:35:52.641Z,27.40
2018-07-15T08:40:55.812Z,27.30
2018-07-15T08:45:58.932Z,26.80
2018-07-15T08:51:02.293Z,27.10
2018-07-15T08:56:05.774Z,25.90
2018-07-15T09:01:09.057Z,25.50
2018-07-15T09:06:12.233Z,25.90
2018-07-15T09:11:15.284Z,25.80
2018-07-15T09:16:18.636Z,25.90
2018-07-15T09:21:21.857Z,25.20
2018-07-15T09:26:24.941Z,24.30
2018-07-15T09:31:28.103Z,24.00
2018-07-15T09:36:31.484Z,24.10
2018-07-15T09:41:34.694Z,23.80
2018-07-15T09:46:37.820Z,23.70
2018-07-15T09:51:40.884Z,23.40
2018-07-15T09:56:43.990Z,22.90
2018-07-15T10:01:47.064Z,22.90
2018-07-15T10:11:53.162Z,23.00
2018-07-15T10:16:56.286Z,23.10
2018-07-15T10:21:59.411Z,23.60
2018-07-15T10:27:02.616Z,23.90
2018-07-15T10:32:05.792Z,23.90
2018-07-15T10:37:09.161Z,23.70
2018-07-15T10:42:12.300Z,23.40
2018-07-15T10:47:15.382Z,23.10
2018-07-15T10:52:18.574Z,22.90
2018-07-15T10:57:21.667Z,22.90
2018-07-15T11:02:24.777Z,23.50
2018-07-15T11:07:27.888Z,23.30
2018-07-15T11:12:30.941Z,22.60
2018-07-15T11:17:34.121Z,22.90
2018-07-15T11:22:37.389Z,23.00
2018-07-15T11:27:40.435Z,23.00
2018-07-15T11:32:44.538Z,23.00
2018-07-15T11:37:47.660Z,23.20
2018-07-15T11:42:50.786Z,23.50
2018-07-15T11:52:57.208Z,23.70
2018-07-15T11:58:00.326Z,23.60
2018-07-15T12:03:03.363Z,23.60
2018-07-15T12:08:06.519Z,23.70
2018-07-15T12:13:09.574Z,23.50
2018-07-15T12:18:12.933Z,23.50
2018-07-15T12:23:16.092Z,23.70
2018-07-15T12:28:19.337Z,23.80
2018-07-15T12:33:22.413Z,23.70
2018-07-15T12:38:25.502Z,23.70
2018-07-15T12:43:28.641Z,23.60
2018-07-15T12:48:31.703Z,23.50
2018-07-15T12:53:34.828Z,23.50
2018-07-15T12:58:37.916Z,23.40
2018-07-15T13:03:41.016Z,23.60
2018-07-15T13:08:44.209Z,23.60
2018-07-15T13:13:47.294Z,23.70
2018-07-15T13:18:50.370Z,23.90
2018-07-15T13:23:53.490Z,23.90
2018-07-15T13:28:56.650Z,24.00
2018-07-15T13:33:59.741Z,23.90
2018-07-15T13:39:02.874Z,24.00
2018-07-15T13:44:05.952Z,23.80
2018-07-15T13:49:09.057Z,23.70
2018-07-15T13:54:12.208Z,23.90
2018-07-15T13:59:15.259Z,24.10
2018-07-15T14:04:18.313Z,24.30
2018-07-15T14:09:21.413Z,24.30
2018-07-15T14:14:24.496Z,24.20
2018-07-15T14:19:27.597Z,24.10
2018-07-15T14:24:30.742Z,24.20
2018-07-15T14:29:33.861Z,24.30
2018-07-15T14:34:36.924Z,24.40
2018-07-15T14:39:41.131Z,24.40
2018-07-15T14:44:44.159Z,24.30
2018-07-15T14:49:47.252Z,24.30
2018-07-15T14:54:50.308Z,24.30
2018-07-15T14:59:53.366Z,24.20
2018-07-15T15:04:56.456Z,24.20
2018-07-15T15:09:59.520Z,24.30
2018-07-15T15:15:02.730Z,24.40
2018-07-15T15:25:08.781Z,24.60
2018-07-15T15:30:11.869Z,24.50
2018-07-15T15:35:14.975Z,24.60
2018-07-15T15:40:18.031Z,24.70
2018-07-15T15:45:21.097Z,24.80
2018-07-15T15:50:24.295Z,24.80
2018-07-15T15:55:27.439Z,24.70
2018-07-15T16:00:30.491Z,24.70
2018-07-15T16:05:33.603Z,24.50
2018-07-15T16:10:36.711Z,24.40
2018-07-15T16:15:39.756Z,24.30
2018-07-15T16:20:42.864Z,24.30
2018-07-15T16:25:45.992Z,24.30
2018-07-15T16:30:49.740Z,24.40
2018-07-15T16:35:52.813Z,24.30
2018-07-15T16:40:55.922Z,24.40
2018-07-15T16:45:59.246Z,24.40
2018-07-15T16:51:02.463Z,24.30
2018-07-15T16:56:05.913Z,24.30
2018-07-15T17:01:09.015Z,24.10
2018-07-15T17:06:12.113Z,24.10
2018-07-15T17:11:15.192Z,24.10
2018-07-15T17:16:18.311Z,24.10
2018-07-15T17:21:21.416Z,24.10
2018-07-15T17:26:24.630Z,24.20
2018-07-15T17:31:27.694Z,24.30
2018-07-15T17:36:30.800Z,24.20
2018-07-15T17:41:33.974Z,24.00
2018-07-15T17:46:37.243Z,23.90
2018-07-15T17:51:40.320Z,23.80
2018-07-15T17:56:43.448Z,23.70
2018-07-15T18:01:46.550Z,23.70
2018-07-15T18:06:50.876Z,23.60
2018-07-15T18:11:53.989Z,23.60
2018-07-15T18:17:02.869Z,23.70
2018-07-15T18:22:06.026Z,23.80
2018-07-15T18:27:09.077Z,23.70
2018-07-15T18:32:12.204Z,23.60
2018-07-15T18:37:15.296Z,23.50
2018-07-15T18:42:18.424Z,23.30
2018-07-15T18:47:21.611Z,23.10
2018-07-15T18:52:24.841Z,23.10
2018-07-15T18:57:27.972Z,22.90
2018-07-15T19:02:31.097Z,22.90
2018-07-15T19:07:34.401Z,22.60
2018-07-15T19:12:37.543Z,22.50
2018-07-15T19:17:40.624Z,22.30
2018-07-15T19:22:43.744Z,22.10
2018-07-15T19:27:46.836Z,21.90
2018-07-15T19:32:49.911Z,21.70
2018-07-15T19:37:53.047Z,21.40
2018-07-15T19:42:56.149Z,21.30
2018-07-15T19:48:00.330Z,21.00
2018-07-15T19:53:03.408Z,20.90
2018-07-15T19:58:06.608Z,20.70
2018-07-15T20:03:09.817Z,20.50
2018-07-15T20:08:13.033Z,20.30
2018-07-15T20:13:16.267Z,20.10
2018-07-15T20:18:19.446Z,20.00
2018-07-15T20:23:22.618Z,19.80
2018-07-15T20:28:26.794Z,19.60
2018-07-15T20:33:29.873Z,19.50
2018-07-15T20:38:33.451Z,19.40
2018-07-15T20:43:36.802Z,19.30
2018-07-15T20:48:39.908Z,19.10
2018-07-15T20:53:43.014Z,19.00
2018-07-15T20:58:46.153Z,18.90
2018-07-15T21:03:49.248Z,18.80
2018-07-15T21:08:52.369Z,18.70
2018-07-15T21:13:55.473Z,18.60
2018-07-15T21:18:58.941Z,18.50
2018-07-15T21:24:01.956Z,18.40
2018-07-15T21:29:05.163Z,18.40
2018-07-15T21:34:08.562Z,18.30
2018-07-15T21:39:11.753Z,18.30
2018-07-15T21:44:15.078Z,18.30
2018-07-15T21:49:18.064Z,18.20
2018-07-15T21:54:21.152Z,18.10
2018-07-15T21:59:24.293Z,18.10
2018-07-15T22:04:27.360Z,18.10
2018-07-15T22:09:54.415Z,18.00
2018-07-15T22:14:57.536Z,18.10
2018-07-15T22:20:00.573Z,18.20
2018-07-15T22:25:03.831Z,18.20
2018-07-15T22:30:06.960Z,18.20
2018-07-15T22:35:10.062Z,18.20
2018-07-15T22:45:16.216Z,18.10
2018-07-15T22:50:19.363Z,18.10
2018-07-15T22:55:22.456Z,18.00
2018-07-15T23:00:25.537Z,17.90
2018-07-15T23:05:42.438Z,17.90
2018-07-15T23:10:45.569Z,17.90
2018-07-15T23:15:49.160Z,17.80
2018-07-15T23:20:52.481Z,17.80
2018-07-15T23:25:56.530Z,17.80
2018-07-15T23:30:59.626Z,17.70
2018-07-15T23:36:02.711Z,17.70
2018-07-15T23:41:06.125Z,17.70
2018-07-15T23:46:09.196Z,17.60
2018-07-15T23:51:12.259Z,17.50
2018-07-15T23:56:15.357Z,17.50
